createdAt,value
2023-01-13T00:01:15.672Z,4.55
2023-01-13T00:03:43.231Z,3.90
2023-01-13T00:06:14.946Z,4.93
2023-01-13T00:08:42.205Z,4.97
2023-01-13T00:11:10.404Z,4.68
2023-01-13T00:13:38.453Z,4.03
2023-01-13T00:16:07.834Z,4.07
2023-01-13T00:18:37.555Z,3.67
2023-01-13T00:21:07.778Z,5.30
2023-01-13T00:23:37.263Z,4.90
2023-01-13T00:26:07.777Z,4.10
2023-01-13T00:28:34.826Z,4.57
2023-01-13T00:31:09.947Z,4.03
2023-01-13T00:33:38.241Z,4.13
2023-01-13T00:36:07.760Z,4.13
2023-01-13T00:38:36.670Z,6.10
2023-01-13T00:41:08.718Z,4.70
2023-01-13T00:43:39.754Z,5.20
2023-01-13T00:46:09.113Z,5.28
2023-01-13T00:48:37.953Z,4.00
2023-01-13T00:51:10.861Z,3.95
2023-01-13T00:53:41.047Z,4.53
2023-01-13T00:56:14.315Z,4.78
2023-01-13T00:58:41.745Z,4.40
2023-01-13T01:01:12.068Z,5.13
2023-01-13T01:03:39.647Z,4.28
2023-01-13T01:06:12.048Z,4.20
2023-01-13T01:08:39.312Z,5.50
2023-01-13T01:11:12.417Z,5.20
2023-01-13T01:13:39.817Z,5.60
2023-01-13T01:16:10.825Z,5.60
2023-01-13T01:18:40.344Z,4.72
2023-01-13T01:21:08.341Z,4.75
2023-01-13T01:23:37.597Z,4.47
2023-01-13T01:26:11.948Z,4.28
2023-01-13T01:28:39.519Z,4.78
2023-01-13T01:31:09.153Z,4.43
2023-01-13T01:33:36.652Z,5.25
2023-01-13T01:36:04.530Z,4.93
2023-01-13T01:38:31.542Z,4.10
2023-01-13T01:40:58.573Z,4.40
2023-01-13T01:44:11.011Z,5.40
2023-01-13T01:46:42.094Z,4.95
2023-01-13T01:49:32.075Z,4.75
2023-01-13T01:52:07.992Z,5.00
2023-01-13T01:54:38.093Z,5.57
2023-01-13T01:57:09.998Z,4.38
2023-01-13T01:59:38.754Z,4.65
2023-01-13T02:02:05.974Z,5.38
2023-01-13T02:04:39.091Z,4.10
2023-01-13T02:07:06.944Z,4.68
2023-01-13T02:09:36.953Z,4.97
2023-01-13T02:12:23.006Z,4.63
2023-01-13T02:14:50.044Z,4.97
2023-01-13T02:17:54.455Z,5.45
2023-01-13T02:20:43.102Z,4.50
2023-01-13T02:23:37.570Z,5.07
2023-01-13T02:26:39.790Z,4.35
2023-01-13T02:29:44.687Z,5.75
2023-01-13T02:35:01.200Z,5.45
2023-01-13T02:37:31.563Z,5.38
2023-01-13T02:40:02.971Z,6.03
2023-01-13T02:42:53.468Z,5.80
2023-01-13T02:45:32.076Z,4.35
2023-01-13T02:48:01.801Z,5.90
2023-01-13T02:50:35.256Z,5.47
2023-01-13T02:53:24.344Z,5.70
2023-01-13T02:55:54.178Z,4.75
2023-01-13T02:58:28.033Z,5.20
2023-01-13T03:00:55.489Z,4.88
2023-01-13T03:03:22.630Z,5.07
2023-01-13T03:06:00.730Z,5.28
2023-01-13T03:08:39.741Z,4.68
2023-01-13T03:11:12.861Z,4.60
2023-01-13T03:14:04.390Z,4.97
2023-01-13T03:16:40.284Z,5.55
2023-01-13T03:19:33.749Z,4.97
2023-01-13T03:22:45.183Z,4.43
2023-01-13T03:25:36.254Z,4.82
2023-01-13T03:28:17.291Z,4.88
2023-01-13T03:30:50.062Z,4.50
2023-01-13T03:33:23.433Z,4.70
2023-01-13T03:35:57.965Z,4.90
2023-01-13T03:38:39.446Z,5.35
2023-01-13T03:41:21.959Z,5.38
2023-01-13T03:44:15.858Z,6.03
2023-01-13T03:46:49.493Z,5.00
2023-01-13T03:49:22.062Z,4.30
2023-01-13T03:51:56.074Z,4.72
2023-01-13T03:54:28.030Z,4.07
2023-01-13T03:57:00.574Z,4.40
2023-01-13T03:59:33.382Z,3.03
2023-01-13T04:02:14.431Z,3.37
2023-01-13T04:04:48.093Z,4.05
2023-01-13T04:07:37.785Z,3.90
2023-01-13T04:10:08.474Z,3.42
2023-01-13T04:13:11.775Z,3.13
2023-01-13T04:15:42.748Z,3.58
2023-01-13T04:18:11.659Z,3.58
2023-01-13T04:20:40.023Z,3.08
2023-01-13T04:23:08.651Z,3.15
2023-01-13T04:25:36.954Z,3.00
2023-01-13T04:28:04.109Z,3.47
2023-01-13T04:30:31.439Z,2.42
2023-01-13T04:32:58.451Z,3.60
2023-01-13T04:35:25.539Z,2.50
2023-01-13T04:37:52.800Z,3.72
2023-01-13T04:40:19.928Z,2.67
2023-01-13T04:42:46.947Z,2.30
2023-01-13T04:45:14.747Z,2.90
2023-01-13T04:47:41.959Z,2.00
2023-01-13T04:50:10.260Z,2.03
2023-01-13T04:52:38.882Z,2.53
2023-01-13T04:55:07.242Z,2.03
2023-01-13T04:57:38.069Z,2.30
2023-01-13T05:00:10.178Z,2.15
2023-01-13T05:02:38.323Z,1.65
2023-01-13T05:05:06.402Z,1.52
2023-01-13T05:07:34.189Z,1.90
2023-01-13T05:10:01.628Z,1.27
2023-01-13T05:12:46.900Z,2.17
2023-01-13T05:15:34.296Z,2.15
2023-01-13T05:18:01.903Z,2.25
2023-01-13T05:20:29.000Z,2.40
2023-01-13T05:23:14.518Z,1.27
2023-01-13T05:25:44.513Z,1.77
2023-01-13T05:28:12.319Z,2.78
2023-01-13T05:30:43.921Z,2.00
2023-01-13T05:33:12.806Z,1.77
2023-01-13T05:35:45.108Z,2.17
2023-01-13T05:38:12.930Z,1.88
2023-01-13T05:40:59.947Z,1.58
2023-01-13T05:43:27.477Z,2.35
2023-01-13T05:45:58.981Z,2.15
2023-01-13T05:48:32.305Z,2.30
2023-01-13T05:50:59.819Z,3.20
2023-01-13T05:53:27.381Z,2.70
2023-01-13T05:55:54.824Z,2.95
2023-01-13T05:58:25.142Z,2.85
2023-01-13T06:00:52.660Z,3.42
2023-01-13T06:03:20.281Z,2.20
2023-01-13T06:05:48.160Z,2.55
2023-01-13T06:08:15.313Z,2.80
2023-01-13T06:10:42.870Z,2.70
2023-01-13T06:13:09.964Z,1.90
2023-01-13T06:15:37.614Z,3.35
2023-01-13T06:18:06.442Z,2.17
2023-01-13T06:20:33.486Z,2.95
2023-01-13T06:23:01.622Z,2.08
2023-01-13T06:25:32.096Z,3.72
2023-01-13T06:27:59.908Z,2.67
2023-01-13T06:30:33.872Z,3.67
2023-01-13T06:33:09.297Z,3.30
2023-01-13T06:35:38.781Z,2.70
2023-01-13T06:38:11.414Z,3.22
2023-01-13T06:40:38.893Z,2.83
2023-01-13T06:43:16.335Z,3.45
2023-01-13T06:45:48.863Z,2.65
2023-01-13T06:48:17.640Z,2.80
2023-01-13T06:50:45.204Z,2.60
2023-01-13T06:53:12.739Z,3.03
2023-01-13T06:55:39.789Z,2.60
2023-01-13T06:58:08.115Z,3.38
2023-01-13T07:00:37.645Z,2.63
2023-01-13T07:03:08.929Z,3.35
2023-01-13T07:05:36.713Z,3.38
2023-01-13T07:08:04.795Z,2.50
2023-01-13T07:10:32.536Z,2.60
2023-01-13T07:13:20.452Z,2.97
2023-01-13T07:15:58.723Z,2.42
2023-01-13T07:18:27.749Z,3.10
2023-01-13T07:20:56.580Z,3.75
2023-01-13T07:23:24.640Z,2.00
2023-01-13T07:25:51.717Z,3.00
2023-01-13T07:28:18.756Z,2.70
2023-01-13T07:30:45.834Z,3.53
2023-01-13T07:33:12.958Z,3.38
2023-01-13T07:35:40.066Z,3.40
2023-01-13T07:38:08.418Z,3.00
2023-01-13T07:40:37.734Z,2.63
2023-01-13T07:43:23.678Z,4.40
2023-01-13T07:45:56.344Z,2.88
2023-01-13T07:48:23.445Z,2.97
2023-01-13T07:50:50.577Z,3.17
2023-01-13T07:53:17.641Z,3.72
2023-01-13T07:55:45.070Z,3.63
2023-01-13T07:58:12.091Z,3.38
2023-01-13T08:00:39.244Z,4.00
2023-01-13T08:03:06.801Z,4.35
2023-01-13T08:05:35.450Z,3.25
2023-01-13T08:08:02.785Z,3.78
2023-01-13T08:10:30.239Z,3.17
2023-01-13T08:13:15.711Z,3.25
2023-01-13T08:15:44.002Z,2.67
2023-01-13T08:18:11.311Z,2.95
2023-01-13T08:20:38.492Z,2.95
2023-01-13T08:23:07.319Z,3.00
2023-01-13T08:25:34.850Z,3.38
2023-01-13T08:28:01.932Z,3.78
2023-01-13T08:30:29.424Z,3.85
2023-01-13T08:32:57.060Z,3.28
2023-01-13T08:35:24.241Z,2.05
2023-01-13T08:37:51.817Z,2.75
2023-01-13T08:40:20.819Z,2.97
2023-01-13T08:42:48.824Z,3.53
2023-01-13T08:45:16.237Z,3.08
2023-01-13T08:47:46.327Z,2.97
2023-01-13T08:50:14.537Z,2.85
2023-01-13T08:52:41.722Z,4.30
2023-01-13T08:55:09.600Z,3.83
2023-01-13T08:57:37.957Z,3.65
2023-01-13T09:00:09.623Z,3.80
2023-01-13T09:02:38.534Z,4.05
2023-01-13T09:05:07.676Z,3.47
2023-01-13T09:07:37.457Z,3.40
2023-01-13T09:10:07.745Z,3.83
2023-01-13T09:12:53.341Z,3.28
2023-01-13T09:15:21.606Z,2.70
2023-01-13T09:17:48.745Z,3.20
2023-01-13T09:20:16.160Z,4.35
2023-01-13T09:22:43.688Z,4.10
2023-01-13T09:25:12.893Z,4.07
2023-01-13T09:27:39.982Z,3.30
2023-01-13T09:30:08.510Z,3.90
2023-01-13T09:32:36.760Z,3.45
2023-01-13T09:35:06.699Z,3.53
2023-01-13T09:37:37.414Z,3.50
2023-01-13T09:40:12.890Z,3.42
2023-01-13T09:43:21.074Z,3.45
2023-01-13T09:45:56.039Z,3.53
2023-01-13T09:48:30.443Z,3.55
2023-01-13T09:51:03.762Z,3.80
2023-01-13T09:53:37.646Z,3.47
2023-01-13T09:58:33.034Z,3.60
2023-01-13T10:01:12.119Z,4.30
2023-01-13T10:03:40.017Z,4.40
2023-01-13T10:06:36.424Z,3.47
2023-01-13T10:09:03.846Z,3.08
2023-01-13T10:11:56.505Z,3.42
2023-01-13T10:14:42.071Z,3.65
2023-01-13T10:17:18.599Z,3.95
2023-01-13T10:19:58.071Z,3.53
2023-01-13T10:22:43.976Z,3.25
2023-01-13T10:25:29.574Z,4.32
2023-01-13T10:28:04.273Z,3.97
2023-01-13T10:30:41.346Z,3.75
2023-01-13T10:33:28.505Z,3.38
2023-01-13T10:36:16.245Z,3.47
2023-01-13T10:38:48.831Z,3.30
2023-01-13T10:41:15.807Z,4.72
2023-01-13T10:43:44.773Z,3.47
2023-01-13T10:46:16.359Z,4.03
2023-01-13T10:48:52.832Z,3.40
2023-01-13T10:51:25.216Z,3.22
2023-01-13T10:54:02.960Z,3.28
2023-01-13T10:56:34.174Z,3.75
2023-01-13T10:59:27.018Z,2.88
2023-01-13T11:02:03.949Z,3.78
2023-01-13T11:04:37.649Z,3.75
2023-01-13T11:07:17.697Z,2.88
2023-01-13T11:09:44.870Z,3.67
2023-01-13T11:12:32.176Z,3.35
2023-01-13T11:15:04.302Z,2.92
2023-01-13T11:17:36.542Z,3.70
2023-01-13T11:20:16.337Z,3.13
2023-01-13T11:22:55.625Z,2.47
2023-01-13T11:25:31.643Z,3.13
2023-01-13T11:28:11.335Z,2.65
2023-01-13T11:31:16.840Z,2.88
2023-01-13T11:34:17.783Z,3.72
2023-01-13T11:36:51.233Z,2.92
2023-01-13T11:39:21.720Z,2.97
2023-01-13T11:42:21.373Z,3.45
2023-01-13T11:45:02.746Z,3.65
2023-01-13T11:47:35.067Z,2.30
2023-01-13T11:50:07.443Z,2.50
2023-01-13T11:52:44.038Z,1.85
2023-01-13T11:55:25.227Z,2.42
2023-01-13T11:58:13.907Z,2.22
2023-01-13T12:00:53.371Z,1.98
2023-01-13T12:03:33.713Z,3.05
2023-01-13T12:06:19.757Z,1.98
2023-01-13T12:08:57.414Z,2.38
2023-01-13T12:11:59.498Z,2.20
2023-01-13T12:14:51.785Z,1.98
2023-01-13T12:17:34.487Z,3.40
2023-01-13T12:20:26.057Z,1.75
2023-01-13T12:22:56.681Z,1.88
2023-01-13T12:25:37.537Z,2.28
2023-01-13T12:28:17.030Z,1.58
2023-01-13T12:31:10.672Z,2.50
2023-01-13T12:33:56.507Z,3.33
2023-01-13T12:36:32.188Z,2.47
2023-01-13T12:39:15.129Z,2.05
2023-01-13T12:42:24.114Z,2.88
2023-01-13T12:45:09.736Z,2.10
2023-01-13T12:47:43.722Z,1.90
2023-01-13T12:50:22.952Z,2.30
2023-01-13T12:52:51.757Z,2.08
2023-01-13T12:55:25.964Z,2.05
2023-01-13T12:58:02.902Z,2.50
2023-01-13T13:00:41.753Z,3.35
2023-01-13T13:03:12.170Z,3.03
2023-01-13T13:05:57.682Z,2.67
2023-01-13T13:08:35.080Z,2.22
2023-01-13T13:11:33.740Z,1.77
2023-01-13T13:14:03.791Z,2.40
2023-01-13T13:16:43.918Z,2.20
2023-01-13T13:19:22.895Z,2.08
2023-01-13T13:22:11.659Z,2.90
2023-01-13T13:24:39.977Z,2.38
2023-01-13T13:27:19.748Z,1.95
2023-01-13T13:30:03.053Z,1.90
2023-01-13T13:33:02.608Z,2.25
2023-01-13T13:35:36.638Z,2.33
2023-01-13T13:38:40.541Z,1.60
2023-01-13T13:41:44.260Z,2.15
2023-01-13T13:44:40.859Z,1.50
2023-01-13T13:47:08.151Z,2.72
2023-01-13T13:49:56.376Z,1.38
2023-01-13T13:52:35.198Z,1.75
2023-01-13T13:55:28.375Z,2.28
2023-01-13T13:58:01.682Z,1.70
2023-01-13T14:00:34.842Z,2.15
2023-01-13T14:03:22.024Z,2.30
2023-01-13T14:06:19.195Z,1.88
2023-01-13T14:08:49.896Z,2.70
2023-01-13T14:11:32.451Z,1.63
2023-01-13T14:14:13.867Z,2.08
2023-01-13T14:16:41.525Z,2.35
2023-01-13T14:19:29.329Z,1.88
2023-01-13T14:21:58.121Z,2.03
2023-01-13T14:24:25.306Z,1.80
2023-01-13T14:26:53.192Z,2.45
2023-01-13T14:29:23.628Z,2.95
2023-01-13T14:31:53.839Z,2.83
2023-01-13T14:34:32.385Z,1.92
2023-01-13T14:37:01.550Z,2.05
2023-01-13T14:39:41.205Z,2.08
2023-01-13T14:42:14.207Z,2.08
2023-01-13T14:44:46.034Z,1.90
2023-01-13T14:47:33.908Z,1.77
2023-01-13T14:50:03.805Z,2.35
2023-01-13T14:52:37.696Z,1.92
2023-01-13T14:55:10.676Z,2.60
2023-01-13T14:57:41.527Z,2.15
2023-01-13T15:00:14.302Z,1.15
2023-01-13T15:02:50.193Z,2.10
2023-01-13T15:05:17.346Z,2.75
2023-01-13T15:07:52.760Z,1.70
2023-01-13T15:10:31.291Z,2.03
2023-01-13T15:13:01.255Z,2.08
2023-01-13T15:15:36.614Z,2.20
2023-01-13T15:18:15.536Z,1.83
2023-01-13T15:20:42.896Z,1.80
2023-01-13T15:23:10.533Z,2.72
2023-01-13T15:25:42.800Z,2.35
2023-01-13T15:28:26.611Z,3.00
2023-01-13T15:30:55.277Z,1.50
2023-01-13T15:33:22.601Z,2.20
2023-01-13T15:35:52.075Z,2.03
2023-01-13T15:38:21.604Z,1.92
2023-01-13T15:40:49.890Z,2.13
2023-01-13T15:43:44.273Z,2.72
2023-01-13T15:49:12.893Z,2.33
2023-01-13T15:51:40.233Z,2.20
2023-01-13T15:54:08.737Z,1.92
2023-01-13T15:56:38.840Z,2.85
2023-01-13T15:59:26.887Z,1.85
2023-01-13T16:01:54.287Z,1.80
2023-01-13T16:04:21.425Z,2.03
2023-01-13T16:06:48.624Z,2.40
2023-01-13T16:09:16.754Z,2.28
2023-01-13T16:11:44.159Z,2.53
2023-01-13T16:14:11.263Z,2.85
2023-01-13T16:16:38.574Z,3.33
2023-01-13T16:19:05.668Z,2.83
2023-01-13T16:21:33.234Z,2.85
2023-01-13T16:24:00.294Z,3.88
2023-01-13T16:26:29.940Z,2.58
2023-01-13T16:28:57.957Z,2.15
2023-01-13T16:31:31.970Z,2.60
2023-01-13T16:34:01.657Z,2.13
2023-01-13T16:36:30.724Z,2.88
2023-01-13T16:38:57.868Z,2.33
2023-01-13T16:41:25.286Z,3.20
2023-01-13T16:43:52.814Z,3.08
2023-01-13T16:46:29.338Z,2.70
2023-01-13T16:49:01.598Z,2.65
2023-01-13T16:51:28.815Z,2.72
2023-01-13T16:53:56.268Z,2.80
2023-01-13T16:56:30.197Z,2.42
2023-01-13T16:58:59.776Z,2.63
2023-01-13T17:01:29.250Z,2.25
2023-01-13T17:03:57.991Z,2.28
2023-01-13T17:06:31.623Z,1.90
2023-01-13T17:09:07.783Z,2.60
2023-01-13T17:11:34.880Z,2.78
2023-01-13T17:14:05.246Z,2.17
2023-01-13T17:16:46.089Z,1.65
2023-01-13T17:19:13.915Z,2.08
2023-01-13T17:21:41.130Z,2.85
2023-01-13T17:24:10.719Z,2.00
2023-01-13T17:26:48.997Z,1.60
2023-01-13T17:29:22.378Z,1.73
2023-01-13T17:31:51.605Z,1.52
2023-01-13T17:34:19.904Z,5.65
2023-01-13T17:36:54.112Z,2.47
2023-01-13T17:39:26.729Z,1.73
2023-01-13T17:41:55.868Z,1.92
2023-01-13T17:44:23.490Z,1.92
2023-01-13T17:46:50.841Z,1.42
2023-01-13T17:49:21.256Z,1.73
2023-01-13T17:51:48.470Z,0.80
2023-01-13T17:54:15.689Z,1.00
2023-01-13T17:56:44.099Z,0.98
2023-01-13T17:59:13.252Z,1.00
2023-01-13T18:01:40.485Z,1.27
2023-01-13T18:04:18.204Z,2.15
2023-01-13T18:06:45.460Z,0.93
2023-01-13T18:09:12.912Z,1.75
2023-01-13T18:11:39.954Z,1.75
2023-01-13T18:14:09.418Z,2.03
2023-01-13T18:16:37.905Z,1.77
2023-01-13T18:19:23.482Z,2.05
2023-01-13T18:22:09.546Z,1.67
2023-01-13T18:24:54.911Z,1.88
2023-01-13T18:27:29.411Z,2.35
2023-01-13T18:29:58.617Z,2.42
2023-01-13T18:32:32.698Z,1.83
2023-01-13T18:35:06.071Z,3.35
2023-01-13T18:37:38.790Z,2.20
2023-01-13T18:40:09.166Z,1.70
2023-01-13T18:42:54.493Z,1.80
2023-01-13T18:45:29.646Z,3.15
2023-01-13T18:47:59.083Z,2.53
2023-01-13T18:50:27.019Z,2.20
2023-01-13T18:52:54.236Z,2.22
2023-01-13T18:55:21.447Z,4.00
2023-01-13T18:57:49.138Z,2.50
2023-01-13T19:00:19.222Z,2.55
2023-01-13T19:02:47.460Z,2.17
2023-01-13T19:05:14.839Z,3.33
2023-01-13T19:07:46.267Z,3.13
2023-01-13T19:10:13.927Z,2.40
2023-01-13T19:12:42.186Z,2.50
2023-01-13T19:15:10.089Z,2.58
2023-01-13T19:17:37.863Z,2.67
2023-01-13T19:20:06.514Z,2.75
2023-01-13T19:22:34.750Z,2.72
2023-01-13T19:25:03.242Z,1.90
2023-01-13T19:27:30.885Z,1.58
2023-01-13T19:29:58.625Z,2.83
2023-01-13T19:32:26.370Z,2.13
2023-01-13T19:34:54.984Z,2.45
2023-01-13T19:37:22.104Z,2.25
2023-01-13T19:39:49.201Z,2.47
2023-01-13T19:42:35.135Z,3.00
2023-01-13T19:45:21.186Z,2.55
2023-01-13T19:47:48.213Z,2.00
2023-01-13T19:50:15.512Z,2.65
2023-01-13T19:52:43.078Z,2.47
2023-01-13T19:55:12.182Z,2.65
2023-01-13T19:57:40.194Z,2.97
2023-01-13T20:00:09.873Z,1.95
2023-01-13T20:02:38.969Z,3.28
2023-01-13T20:05:08.053Z,2.85
2023-01-13T20:07:35.403Z,1.55
2023-01-13T20:10:03.377Z,2.58
2023-01-13T20:12:30.466Z,2.47
2023-01-13T20:14:57.508Z,3.20
2023-01-13T20:17:26.301Z,2.53
2023-01-13T20:19:53.724Z,2.47
2023-01-13T20:22:21.206Z,2.33
2023-01-13T20:24:52.013Z,2.80
2023-01-13T20:27:19.159Z,2.50
2023-01-13T20:29:46.186Z,1.40
2023-01-13T20:32:13.339Z,1.63
2023-01-13T20:34:40.584Z,1.77
2023-01-13T20:37:10.468Z,2.30
2023-01-13T20:39:40.010Z,2.75
2023-01-13T20:42:28.160Z,2.35
2023-01-13T20:44:56.450Z,1.67
2023-01-13T20:47:23.762Z,1.50
2023-01-13T20:49:50.891Z,2.08
2023-01-13T20:52:17.959Z,2.20
2023-01-13T20:54:44.944Z,1.98
2023-01-13T20:57:12.801Z,1.85
2023-01-13T20:59:40.400Z,2.10
2023-01-13T21:02:13.175Z,2.67
2023-01-13T21:04:40.950Z,2.20
2023-01-13T21:07:08.514Z,2.13
2023-01-13T21:09:37.856Z,1.55
2023-01-13T21:12:24.180Z,2.13
2023-01-13T21:15:09.757Z,2.35
2023-01-13T21:17:56.055Z,2.42
2023-01-13T21:20:23.195Z,2.00
2023-01-13T21:22:50.324Z,1.58
2023-01-13T21:25:18.478Z,2.38
2023-01-13T21:27:45.595Z,2.53
2023-01-13T21:30:14.874Z,2.38
2023-01-13T21:32:43.686Z,2.60
2023-01-13T21:35:11.731Z,2.88
2023-01-13T21:37:40.924Z,2.83
2023-01-13T21:40:11.059Z,2.95
2023-01-13T21:42:56.566Z,2.22
2023-01-13T21:45:42.785Z,2.50
2023-01-13T21:48:09.940Z,3.88
2023-01-13T21:50:38.484Z,2.80
2023-01-13T21:53:09.964Z,3.72
2023-01-13T21:55:38.085Z,2.63
2023-01-13T21:58:14.216Z,2.80
2023-01-13T22:00:43.504Z,3.15
2023-01-13T22:03:12.419Z,2.42
2023-01-13T22:05:41.023Z,3.78
2023-01-13T22:08:08.501Z,2.35
2023-01-13T22:10:37.943Z,2.63
2023-01-13T22:13:23.800Z,2.28
2023-01-13T22:15:50.907Z,2.17
2023-01-13T22:18:20.518Z,2.95
2023-01-13T22:20:49.074Z,3.38
2023-01-13T22:23:16.184Z,2.70
2023-01-13T22:25:43.277Z,3.67
2023-01-13T22:28:14.331Z,2.38
2023-01-13T22:30:41.572Z,2.60
2023-01-13T22:33:08.603Z,2.20
2023-01-13T22:35:36.669Z,2.17
2023-01-13T22:38:03.674Z,2.40
2023-01-13T22:40:30.738Z,2.40
2023-01-13T22:42:57.732Z,3.03
2023-01-13T22:45:24.793Z,2.38
2023-01-13T22:47:51.853Z,2.15
2023-01-13T22:50:20.858Z,1.95
2023-01-13T22:52:48.058Z,2.20
2023-01-13T22:55:15.147Z,2.28
2023-01-13T22:57:47.795Z,2.40
2023-01-13T23:00:18.801Z,2.33
2023-01-13T23:02:46.514Z,1.75
2023-01-13T23:05:16.602Z,1.92
2023-01-13T23:07:44.439Z,1.67
2023-01-13T23:10:11.734Z,2.08
2023-01-13T23:12:38.936Z,2.17
2023-01-13T23:15:06.682Z,1.23
2023-01-13T23:17:33.927Z,2.50
2023-01-13T23:20:01.501Z,2.28
2023-01-13T23:22:28.614Z,3.00
2023-01-13T23:24:55.723Z,2.13
2023-01-13T23:27:22.806Z,1.77
2023-01-13T23:29:49.813Z,2.90
2023-01-13T23:32:16.924Z,1.95
2023-01-13T23:34:44.482Z,2.40
2023-01-13T23:37:11.632Z,2.65
2023-01-13T23:39:38.698Z,2.75
2023-01-13T23:42:06.910Z,2.97
2023-01-13T23:44:33.971Z,2.55
2023-01-13T23:47:01.022Z,2.15
2023-01-13T23:49:28.571Z,2.00
2023-01-13T23:51:55.695Z,2.65
2023-01-13T23:54:22.803Z,2.75
2023-01-13T23:56:52.406Z,2.53
2023-01-13T23:59:20.250Z,2.47
